Observation data for Lamesa on 11/16/2019      Previous  Date       Current Mesonet Observations  Soil Data  Daily Summary Page  Observations in Plain Language
KLES 160600Z 20004KT 04/M00 A302 RMK A01 T00421003  RH  073%=      5-min Rain = 0
KLES 160605Z 20004KT 04/M00 A302 RMK A01 T00421003  RH  073%=      5-min Rain = 0
KLES 160610Z 20004KT 04/M00 A302 RMK A01 T00431002  RH  073%=      5-min Rain = 0
KLES 160615Z 21002KT 04/M00 A302 RMK A01 T00431003  RH  073%=      5-min Rain = 0
KLES 160620Z 21003KT 04/M00 A302 RMK A01 T00431001  RH  073%=      5-min Rain = 0
KLES 160625Z 21003KT 04/M00 A302 RMK A01 T00441001  RH  073%=      5-min Rain = 0
KLES 160630Z 21004KT 05/M00 A302 RMK A01 T00451001  RH  073%=      5-min Rain = 0
KLES 160635Z 22003KT 04/M00 A302 RMK A01 T00441001  RH  073%=      5-min Rain = 0
KLES 160640Z 23003KT 04/00 A302 RMK A01 T004400-0  RH  074%=      5-min Rain = 0
KLES 160645Z 23003KT 05/00 A302 RMK A01 T00450001  RH  074%=      5-min Rain = 0
KLES 160650Z 23004KT 05/00 A3019 RMK A01 T00450001  RH  074%=      5-min Rain = 0
KLES 160655Z 23004KT 05/00 A3019 RMK A01 T00450001  RH  074%=      5-min Rain = 0
KLES 160700Z 22005KT 05/00 A3019 RMK A01 T00450000  RH  074%=      5-min Rain = 0
KLES 160705Z 22004KT 04/00 A3019 RMK A01 T004400-0  RH  074%=      5-min Rain = 0
KLES 160710Z 22004KT 04/00 A3019 RMK A01 T004300-0  RH  074%=      5-min Rain = 0
KLES 160715Z 22004KT 04/00 A3019 RMK A01 T00430000  RH  075%=      5-min Rain = 0
KLES 160720Z 21005KT 04/00 A3019 RMK A01 T004200-0  RH  075%=      5-min Rain = 0
KLES 160725Z 20004KT 04/M00 A3019 RMK A01 T00391002  RH  075%=      5-min Rain = 0
KLES 160730Z 19004KT 04/M01 A3018 RMK A01 T00351006  RH  076%=      5-min Rain = 0
KLES 160735Z 19004KT 03/M01 A3018 RMK A01 T00321006  RH  077%=      5-min Rain = 0
KLES 160740Z 19004KT 03/M01 A3018 RMK A01 T00311005  RH  078%=      5-min Rain = 0
KLES 160745Z 19004KT 03/M01 A3018 RMK A01 T00301005  RH  079%=      5-min Rain = 0
KLES 160750Z 19004KT 03/M00 A3018 RMK A01 T00301004  RH  079%=      5-min Rain = 0
KLES 160755Z 19004KT 03/M00 A3018 RMK A01 T00301004  RH  080%=      5-min Rain = 0
KLES 160800Z 19004KT 03/M00 A3018 RMK A01 T00301003  RH  080%=      5-min Rain = 0
KLES 160805Z 18005KT 03/M00 A3018 RMK A01 T00301002  RH  080%=      5-min Rain = 0
KLES 160810Z 18005KT 03/M00 A3018 RMK A01 T00311001  RH  080%=      5-min Rain = 0
KLES 160815Z 18006KT 03/M00 A3018 RMK A01 T00311002  RH  080%=      5-min Rain = 0
KLES 160820Z 18006KT 03/M00 A3018 RMK A01 T00311002  RH  080%=      5-min Rain = 0
KLES 160825Z 18005KT 03/M00 A3018 RMK A01 T00311001  RH  080%=      5-min Rain = 0
KLES 160830Z 18005KT 03/M00 A3017 RMK A01 T00311002  RH  080%=      5-min Rain = 0
KLES 160835Z 17005KT 03/M00 A3017 RMK A01 T00291003  RH  081%=      5-min Rain = 0
KLES 160840Z 18006KT 03/M00 A3017 RMK A01 T00291002  RH  081%=      5-min Rain = 0
KLES 160845Z 18006KT 03/M00 A3017 RMK A01 T00281003  RH  081%=      5-min Rain = 0
KLES 160850Z 18006KT 03/M00 A3017 RMK A01 T00281002  RH  082%=      5-min Rain = 0
KLES 160855Z 18006KT 03/M00 A3017 RMK A01 T00271002  RH  082%=      5-min Rain = 0
KLES 160900Z 18006KT 03/M00 A3017 RMK A01 T00261002  RH  082%=      5-min Rain = 0
KLES 160905Z 17006KT 03/M00 A3017 RMK A01 T00271001  RH  083%=      5-min Rain = 0
KLES 160910Z 17006KT 03/00 A3016 RMK A01 T002700-0  RH  083%=      5-min Rain = 0
KLES 160915Z 17006KT 03/00 A3016 RMK A01 T00280000  RH  083%=      5-min Rain = 0
KLES 160920Z 17006KT 03/00 A3016 RMK A01 T00290001  RH  083%=      5-min Rain = 0
KLES 160925Z 17005KT 03/00 A3016 RMK A01 T00300002  RH  083%=      5-min Rain = 0
KLES 160930Z 18006KT 03/00 A3016 RMK A01 T00320004  RH  083%=      5-min Rain = 0
KLES 160935Z 18006KT 03/01 A3016 RMK A01 T00340005  RH  082%=      5-min Rain = 0
KLES 160940Z 18005KT 04/01 A3016 RMK A01 T00350005  RH  082%=      5-min Rain = 0
KLES 160945Z 17005KT 03/00 A3015 RMK A01 T00340004  RH  081%=      5-min Rain = 0
KLES 160950Z 17006KT 03/00 A3015 RMK A01 T00330003  RH  081%=      5-min Rain = 0
KLES 160955Z 18006KT 03/00 A3015 RMK A01 T00320002  RH  082%=      5-min Rain = 0
KLES 161000Z 18006KT 03/00 A3015 RMK A01 T00310002  RH  082%=      5-min Rain = 0
KLES 161005Z 18006KT 03/00 A3015 RMK A01 T00310002  RH  082%=      5-min Rain = 0
KLES 161010Z 18006KT 03/00 A3015 RMK A01 T00300001  RH  083%=      5-min Rain = 0
KLES 161015Z 18006KT 03/00 A3015 RMK A01 T00300003  RH  083%=      5-min Rain = 0
KLES 161020Z 18006KT 03/00 A3015 RMK A01 T00310003  RH  083%=      5-min Rain = 0
KLES 161025Z 18006KT 03/00 A3015 RMK A01 T00320003  RH  082%=      5-min Rain = 0
KLES 161030Z 18006KT 03/00 A3015 RMK A01 T00310002  RH  082%=      5-min Rain = 0
KLES 161035Z 18006KT 03/00 A3015 RMK A01 T00300001  RH  083%=      5-min Rain = 0
KLES 161040Z 18005KT 03/00 A3015 RMK A01 T00300002  RH  083%=      5-min Rain = 0
KLES 161045Z 18006KT 03/00 A3015 RMK A01 T00300002  RH  083%=      5-min Rain = 0
KLES 161050Z 18006KT 03/00 A3015 RMK A01 T00290002  RH  083%=      5-min Rain = 0
KLES 161055Z 18005KT 03/00 A3015 RMK A01 T00290001  RH  083%=      5-min Rain = 0
KLES 161100Z 18005KT 03/00 A3015 RMK A01 T00290001  RH  083%=      5-min Rain = 0
KLES 161105Z 18005KT 03/00 A3015 RMK A01 T00280001  RH  083%=      5-min Rain = 0
KLES 161110Z 18004KT 03/00 A3015 RMK A01 T002700-0  RH  083%=      5-min Rain = 0
KLES 161115Z 18004KT 03/M00 A3015 RMK A01 T00261001  RH  084%=      5-min Rain = 0
KLES 161120Z 17005KT 02/M00 A3014 RMK A01 T00241001  RH  084%=      5-min Rain = 0
KLES 161125Z 16005KT 02/M00 A3014 RMK A01 T00241002  RH  084%=      5-min Rain = 0
KLES 161130Z 16005KT 02/M00 A3014 RMK A01 T00241001  RH  085%=      5-min Rain = 0
KLES 161135Z 17004KT 02/00 A3014 RMK A01 T002400-0  RH  085%=      5-min Rain = 0
KLES 161140Z 16004KT 02/M00 A3014 RMK A01 T00241001  RH  085%=      5-min Rain = 0
KLES 161145Z 16003KT 02/M00 A3014 RMK A01 T00231001  RH  085%=      5-min Rain = 0
KLES 161150Z 15004KT 02/M00 A3014 RMK A01 T00231001  RH  085%=      5-min Rain = 0
KLES 161155Z 15005KT 02/00 A3014 RMK A01 T00240001  RH  086%=      5-min Rain = 0
KLES 161200Z 16005KT 03/00 A3014 RMK A01 T00250001  RH  085%=      5-min Rain = 0
KLES 161205Z 16004KT 03/00 A3014 RMK A01 T00250001  RH  085%=      5-min Rain = 0
KLES 161210Z 16004KT 02/00 A3014 RMK A01 T002400-0  RH  085%=      5-min Rain = 0
KLES 161215Z 17005KT 02/M00 A3014 RMK A01 T00221002  RH  085%=      5-min Rain = 0
KLES 161220Z 17004KT 02/M00 A3014 RMK A01 T00201003  RH  085%=      5-min Rain = 0
KLES 161225Z 16004KT 02/M00 A3014 RMK A01 T00201003  RH  086%=      5-min Rain = 0
KLES 161230Z 16004KT 02/M00 A3014 RMK A01 T00201002  RH  086%=      5-min Rain = 0
KLES 161235Z 17004KT 02/M00 A3014 RMK A01 T00211001  RH  086%=      5-min Rain = 0
KLES 161240Z 17005KT 02/M00 A3015 RMK A01 T00211002  RH  086%=      5-min Rain = 0
KLES 161245Z 17005KT 02/M00 A3015 RMK A01 T00191004  RH  085%=      5-min Rain = 0
KLES 161250Z 17005KT 02/M01 A3015 RMK A01 T00171005  RH  086%=      5-min Rain = 0
KLES 161255Z 17005KT 02/M01 A3015 RMK A01 T00161006  RH  086%=      5-min Rain = 0
KLES 161300Z 17005KT 02/M01 A3015 RMK A01 T00151006  RH  087%=      5-min Rain = 0
KLES 161305Z 16005KT 02/M01 A3015 RMK A01 T00151005  RH  087%=      5-min Rain = 0
KLES 161310Z 16005KT 02/M00 A3015 RMK A01 T00171003  RH  088%=      5-min Rain = 0
KLES 161315Z 16005KT 02/M00 A3015 RMK A01 T00191002  RH  087%=      5-min Rain = 0
KLES 161320Z 16006KT 02/M00 A3015 RMK A01 T00201001  RH  087%=      5-min Rain = 0
KLES 161325Z 16005KT 02/00 A3015 RMK A01 T002100-0  RH  087%=      5-min Rain = 0
KLES 161330Z 16005KT 02/00 A3015 RMK A01 T00210000  RH  087%=      5-min Rain = 0
KLES 161335Z 16005KT 02/00 A3015 RMK A01 T00220001  RH  087%=      5-min Rain = 0
KLES 161340Z 17005KT 02/00 A3015 RMK A01 T00240002  RH  087%=      5-min Rain = 0
KLES 161345Z 18005KT 03/00 A3015 RMK A01 T00260003  RH  086%=      5-min Rain = 0
KLES 161350Z 17005KT 03/00 A3015 RMK A01 T00270004  RH  086%=      5-min Rain = 0
KLES 161355Z 18005KT 03/01 A3015 RMK A01 T00290006  RH  086%=      5-min Rain = 0
KLES 161400Z 18005KT 03/01 A3015 RMK A01 T00320008  RH  085%=      5-min Rain = 0
KLES 161405Z 17005KT 03/01 A3015 RMK A01 T00340009  RH  085%=      5-min Rain = 0
KLES 161410Z 17005KT 04/01 A3015 RMK A01 T00380011  RH  084%=      5-min Rain = 0
KLES 161415Z 17005KT 04/01 A3015 RMK A01 T00400011  RH  082%=      5-min Rain = 0
KLES 161420Z 17005KT 04/01 A3015 RMK A01 T00430011  RH  081%=      5-min Rain = 0
KLES 161425Z 18006KT 05/01 A3015 RMK A01 T00460012  RH  080%=      5-min Rain = 0
KLES 161430Z 18006KT 05/01 A3015 RMK A01 T00490012  RH  078%=      5-min Rain = 0
KLES 161435Z 18007KT 05/01 A3015 RMK A01 T00530012  RH  076%=      5-min Rain = 0
KLES 161440Z 18007KT 06/01 A3015 RMK A01 T00550012  RH  075%=      5-min Rain = 0
KLES 161445Z 18008KT 06/01 A3015 RMK A01 T00590014  RH  074%=      5-min Rain = 0
KLES 161450Z 18009KT 06/01 A3015 RMK A01 T00620013  RH  072%=      5-min Rain = 0
KLES 161455Z 18009KT 06/01 A3015 RMK A01 T00640014  RH  071%=      5-min Rain = 0
KLES 161500Z 18008KT 07/01 A3015 RMK A01 T00660014  RH  070%=      5-min Rain = 0
KLES 161505Z 18009KT 07/01 A3015 RMK A01 T00690014  RH  069%=      5-min Rain = 0
KLES 161510Z 18008KT 07/01 A3015 RMK A01 T00700014  RH  069%=      5-min Rain = 0
KLES 161515Z 19008KT 07/02 A3015 RMK A01 T00730016  RH  068%=      5-min Rain = 0
KLES 161520Z 19008KT 07/02 A3015 RMK A01 T00740016  RH  067%=      5-min Rain = 0
KLES 161525Z 19009KT 08/02 A3015 RMK A01 T00770016  RH  067%=      5-min Rain = 0
KLES 161530Z 19008KT 08/02 A3015 RMK A01 T00790017  RH  066%=      5-min Rain = 0
KLES 161535Z 18010KT 08/02 A3014 RMK A01 T00810017  RH  065%=      5-min Rain = 0
KLES 161540Z 18009KT 08/02 A3014 RMK A01 T00840019  RH  065%=      5-min Rain = 0
KLES 161545Z 18010KT 09/02 A3014 RMK A01 T00870019  RH  063%=      5-min Rain = 0
KLES 161550Z 19009KT 09/02 A3014 RMK A01 T00880019  RH  063%=      5-min Rain = 0
KLES 161555Z 19009KT 09/02 A3014 RMK A01 T00920021  RH  062%=      5-min Rain = 0
KLES 161600Z 19008KT 09/02 A3014 RMK A01 T00930020  RH  062%=      5-min Rain = 0
KLES 161605Z 19009KT 09/02 A3014 RMK A01 T00940022  RH  062%=      5-min Rain = 0
KLES 161610Z 19011KT 10/02 A3014 RMK A01 T00960023  RH  061%=      5-min Rain = 0
KLES 161615Z 18009KT 10/03 A3014 RMK A01 T00990025  RH  061%=      5-min Rain = 0
KLES 161620Z 19009KT 11/03 A3014 RMK A01 T01050026  RH  059%=      5-min Rain = 0
KLES 161625Z 18010KT 11/03 A3014 RMK A01 T01050025  RH  059%=      5-min Rain = 0
KLES 161630Z 18009KT 11/03 A3014 RMK A01 T01060025  RH  058%=      5-min Rain = 0
KLES 161635Z 18009KT 11/03 A3014 RMK A01 T01090026  RH  058%=      5-min Rain = 0
KLES 161640Z 18009KT 11/03 A3013 RMK A01 T01120027  RH  057%=      5-min Rain = 0
KLES 161645Z 19010KT 11/03 A3013 RMK A01 T01130027  RH  056%=      5-min Rain = 0
KLES 161650Z 19009KT 11/03 A3013 RMK A01 T01130027  RH  056%=      5-min Rain = 0
KLES 161655Z 18007KT 11/03 A3013 RMK A01 T01140027  RH  056%=      5-min Rain = 0
KLES 161700Z 19009KT 12/03 A3013 RMK A01 T01160028  RH  056%=      5-min Rain = 0
KLES 161705Z 19010KT 12/03 A3013 RMK A01 T01160028  RH  056%=      5-min Rain = 0
KLES 161710Z 18009KT 12/03 A3013 RMK A01 T01180029  RH  055%=      5-min Rain = 0
KLES 161715Z 18010KT 12/03 A3013 RMK A01 T01170028  RH  055%=      5-min Rain = 0
KLES 161720Z 19011KT 12/03 A3012 RMK A01 T01170028  RH  055%=      5-min Rain = 0
KLES 161725Z 18010KT 12/03 A3012 RMK A01 T01160027  RH  055%=      5-min Rain = 0
KLES 161730Z 18010KT 12/03 A3012 RMK A01 T01150028  RH  056%=      5-min Rain = 0
KLES 161735Z 18010KT 12/03 A3011 RMK A01 T01160029  RH  056%=      5-min Rain = 0
KLES 161740Z 18009KT 12/03 A3011 RMK A01 T01190030  RH  055%=      5-min Rain = 0
KLES 161745Z 18009KT 12/03 A3011 RMK A01 T01240032  RH  054%=      5-min Rain = 0
KLES 161750Z 17008KT 13/03 A301 RMK A01 T01300033  RH  053%=      5-min Rain = 0
KLES 161755Z 16010KT 13/03 A301 RMK A01 T01320032  RH  052%=      5-min Rain = 0
KLES 161800Z 17008KT 14/04 A3009 RMK A01 T01350035  RH  052%=      5-min Rain = 0
KLES 161805Z 17009KT 14/03 A3009 RMK A01 T01410034  RH  050%=      5-min Rain = 0
KLES 161810Z 17010KT 14/03 A3008 RMK A01 T01410034  RH  049%=      5-min Rain = 0
KLES 161815Z 17009KT 15/04 A3008 RMK A01 T01470035  RH  048%=      5-min Rain = 0
KLES 161820Z 19010KT 15/04 A3008 RMK A01 T01490036  RH  047%=      5-min Rain = 0
KLES 161825Z 18010KT 15/03 A3008 RMK A01 T01490034  RH  047%=      5-min Rain = 0
KLES 161830Z 18010KT 15/03 A3007 RMK A01 T01490034  RH  047%=      5-min Rain = 0
KLES 161835Z 18009KT 15/04 A3007 RMK A01 T01520036  RH  047%=      5-min Rain = 0
KLES 161840Z 18010KT 15/03 A3006 RMK A01 T01520034  RH  046%=      5-min Rain = 0
KLES 161845Z 18009KT 15/03 A3006 RMK A01 T01500034  RH  046%=      5-min Rain = 0
KLES 161850Z 18009KT 15/03 A3006 RMK A01 T01500034  RH  047%=      5-min Rain = 0
KLES 161855Z 17009KT 15/04 A3006 RMK A01 T01510035  RH  047%=      5-min Rain = 0
KLES 161900Z 17008KT 16/04 A3005 RMK A01 T01550037  RH  046%=      5-min Rain = 0
KLES 161905Z 18008KT 16/04 A3005 RMK A01 T01580035  RH  045%=      5-min Rain = 0
KLES 161910Z 17010KT 16/04 A3004 RMK A01 T01590036  RH  045%=      5-min Rain = 0
KLES 161915Z 18009KT 16/04 A3004 RMK A01 T01620036  RH  044%=      5-min Rain = 0
KLES 161920Z 19008KT 16/03 A3004 RMK A01 T01640034  RH  043%=      5-min Rain = 0
KLES 161925Z 18008KT 17/04 A3004 RMK A01 T01650035  RH  043%=      5-min Rain = 0
KLES 161930Z 20010KT 17/03 A3004 RMK A01 T01680031  RH  041%=      5-min Rain = 0
KLES 161935Z 17009KT 17/03 A3003 RMK A01 T01670033  RH  041%=      5-min Rain = 0
KLES 161940Z 18009KT 17/03 A3003 RMK A01 T01720034  RH  041%=      5-min Rain = 0
KLES 161945Z 20009G14KT 17/03 A3003 RMK A01 T01740031  RH  039%=      5-min Rain = 0
KLES 161950Z 19010KT 17/03 A3003 RMK A01 T01710031  RH  040%=      5-min Rain = 0
KLES 161955Z 19009KT 17/03 A3002 RMK A01 T01700030  RH  040%=      5-min Rain = 0
KLES 162000Z 18010KT 17/03 A3002 RMK A01 T01730032  RH  040%=      5-min Rain = 0
KLES 162005Z 19008KT 18/03 A3002 RMK A01 T01760032  RH  039%=      5-min Rain = 0
KLES 162010Z 18009KT 18/03 A3002 RMK A01 T01810031  RH  037%=      5-min Rain = 0
KLES 162015Z 19009G14KT 18/03 A3001 RMK A01 T01820031  RH  037%=      5-min Rain = 0
KLES 162020Z 20009KT 18/03 A3001 RMK A01 T01810031  RH  037%=      5-min Rain = 0
KLES 162025Z 19009G14KT 18/03 A3001 RMK A01 T01820030  RH  037%=      5-min Rain = 0
KLES 162030Z 20010KT 19/03 A3001 RMK A01 T01850029  RH  036%=      5-min Rain = 0
KLES 162035Z 20008G13KT 19/03 A3001 RMK A01 T01870029  RH  036%=      5-min Rain = 0
KLES 162040Z 19009G14KT 19/03 A3001 RMK A01 T01900028  RH  035%=      5-min Rain = 0
KLES 162045Z 20011G17KT 19/03 A3001 RMK A01 T01920026  RH  034%=      5-min Rain = 0
KLES 162050Z 18012KT 19/03 A3001 RMK A01 T01910028  RH  034%=      5-min Rain = 0
KLES 162055Z 18012G17KT 19/03 A3001 RMK A01 T01920029  RH  034%=      5-min Rain = 0
KLES 162100Z 18011G16KT 19/03 A30 RMK A01 T01910030  RH  035%=      5-min Rain = 0
KLES 162105Z 18011KT 19/03 A30 RMK A01 T01900028  RH  035%=      5-min Rain = 0
KLES 162110Z 19009KT 19/03 A30 RMK A01 T01920028  RH  034%=      5-min Rain = 0
KLES 162115Z 20010KT 19/03 A30 RMK A01 T01910027  RH  034%=      5-min Rain = 0
KLES 162120Z 20009KT 19/02 A30 RMK A01 T01900023  RH  033%=      5-min Rain = 0
KLES 162125Z 19010KT 19/02 A2999 RMK A01 T01900022  RH  033%=      5-min Rain = 0
KLES 162130Z 21012KT 19/02 A2999 RMK A01 T01900021  RH  033%=      5-min Rain = 0
KLES 162135Z 20009KT 19/02 A2999 RMK A01 T01910021  RH  033%=      5-min Rain = 0
KLES 162140Z 21007KT 19/02 A2999 RMK A01 T01930022  RH  032%=      5-min Rain = 0
KLES 162145Z 19009KT 20/02 A2999 RMK A01 T01960022  RH  032%=      5-min Rain = 0
KLES 162150Z 21009KT 20/02 A2999 RMK A01 T01960022  RH  032%=      5-min Rain = 0
KLES 162155Z 19012KT 19/02 A2999 RMK A01 T01930021  RH  032%=      5-min Rain = 0
KLES 162200Z 19011KT 19/02 A2999 RMK A01 T01910018  RH  032%=      5-min Rain = 0
KLES 162205Z 20010KT 19/02 A2999 RMK A01 T01860017  RH  033%=      5-min Rain = 0
KLES 162210Z 21009KT 18/02 A2999 RMK A01 T01840017  RH  033%=      5-min Rain = 0
KLES 162215Z 21009KT 18/02 A2999 RMK A01 T01840017  RH  033%=      5-min Rain = 0
KLES 162220Z 21010KT 18/02 A2999 RMK A01 T01830015  RH  033%=      5-min Rain = 0
KLES 162225Z 20009KT 18/02 A2999 RMK A01 T01820017  RH  034%=      5-min Rain = 0
KLES 162230Z 19008KT 18/02 A2999 RMK A01 T01800019  RH  035%=      5-min Rain = 0
KLES 162235Z 19007KT 18/02 A2999 RMK A01 T01790020  RH  035%=      5-min Rain = 0
KLES 162240Z 19007KT 18/02 A2999 RMK A01 T01790021  RH  035%=      5-min Rain = 0
KLES 162245Z 19006KT 18/02 A2999 RMK A01 T01780022  RH  036%=      5-min Rain = 0
KLES 162250Z 19006KT 18/02 A2999 RMK A01 T01760024  RH  037%=      5-min Rain = 0
KLES 162255Z 18006KT 18/03 A2999 RMK A01 T01750026  RH  037%=      5-min Rain = 0
KLES 162300Z 17005KT 18/03 A2999 RMK A01 T01750027  RH  038%=      5-min Rain = 0
KLES 162305Z 17004KT 18/03 A2999 RMK A01 T01770030  RH  038%=      5-min Rain = 0
KLES 162310Z 17005KT 18/03 A2999 RMK A01 T01780031  RH  038%=      5-min Rain = 0
KLES 162315Z 17006KT 18/03 A2999 RMK A01 T01750031  RH  039%=      5-min Rain = 0
KLES 162320Z 17007KT 17/03 A2999 RMK A01 T01710032  RH  040%=      5-min Rain = 0
KLES 162325Z 17008KT 17/03 A2999 RMK A01 T01670032  RH  041%=      5-min Rain = 0
KLES 162330Z 17008KT 17/03 A2999 RMK A01 T01650032  RH  042%=      5-min Rain = 0
KLES 162335Z 17007KT 16/03 A2999 RMK A01 T01610033  RH  043%=      5-min Rain = 0
KLES 162340Z 17006KT 16/03 A2999 RMK A01 T01570034  RH  045%=      5-min Rain = 0
KLES 162345Z 17005KT 15/03 A2999 RMK A01 T01520034  RH  046%=      5-min Rain = 0
KLES 162350Z 17006KT 15/03 A2999 RMK A01 T01470034  RH  047%=      5-min Rain = 0
KLES 162355Z 16006KT 14/04 A2999 RMK A01 T01430035  RH  049%=      5-min Rain = 0
KLES 170000Z 16007KT 14/04 A2999 RMK A01 T01400037  RH  051%=      5-min Rain = 0
KLES 170005Z 16007KT 14/04 A2999 RMK A01 T01400038  RH  051%=      5-min Rain = 0
KLES 170010Z 16007KT 14/04 A2999 RMK A01 T01390038  RH  052%=      5-min Rain = 0
KLES 170015Z 16007KT 14/04 A2999 RMK A01 T01360038  RH  053%=      5-min Rain = 0
KLES 170020Z 16007KT 13/04 A2999 RMK A01 T01320038  RH  054%=      5-min Rain = 0
KLES 170025Z 16007KT 13/04 A2999 RMK A01 T01310039  RH  055%=      5-min Rain = 0
KLES 170030Z 17007KT 13/04 A2999 RMK A01 T01290039  RH  055%=      5-min Rain = 0
KLES 170035Z 17007KT 13/04 A2999 RMK A01 T01260039  RH  057%=      5-min Rain = 0
KLES 170040Z 17007KT 12/04 A30 RMK A01 T01240040  RH  058%=      5-min Rain = 0
KLES 170045Z 17007KT 12/04 A30 RMK A01 T01220039  RH  058%=      5-min Rain = 0
KLES 170050Z 17008KT 12/04 A30 RMK A01 T01190040  RH  060%=      5-min Rain = 0
KLES 170055Z 17008KT 12/04 A30 RMK A01 T01200042  RH  060%=      5-min Rain = 0
KLES 170100Z 16007KT 12/04 A30 RMK A01 T01190042  RH  061%=      5-min Rain = 0
KLES 170105Z 17007KT 12/04 A30 RMK A01 T01180044  RH  061%=      5-min Rain = 0
KLES 170110Z 17007KT 12/04 A30 RMK A01 T01170044  RH  062%=      5-min Rain = 0
KLES 170115Z 17008KT 12/05 A30 RMK A01 T01160045  RH  063%=      5-min Rain = 0
KLES 170120Z 17007KT 11/05 A2999 RMK A01 T01140045  RH  064%=      5-min Rain = 0
KLES 170125Z 17007KT 11/05 A2999 RMK A01 T01140046  RH  064%=      5-min Rain = 0
KLES 170130Z 17007KT 11/05 A2999 RMK A01 T01130046  RH  065%=      5-min Rain = 0
KLES 170135Z 17007KT 11/05 A2999 RMK A01 T01120046  RH  065%=      5-min Rain = 0
KLES 170140Z 17008KT 11/05 A2999 RMK A01 T01100046  RH  066%=      5-min Rain = 0
KLES 170145Z 17008KT 11/05 A2999 RMK A01 T01090046  RH  066%=      5-min Rain = 0
KLES 170150Z 17007KT 11/05 A2999 RMK A01 T01090046  RH  066%=      5-min Rain = 0
KLES 170155Z 17008KT 11/05 A2999 RMK A01 T01100046  RH  066%=      5-min Rain = 0
KLES 170200Z 17007KT 11/05 A30 RMK A01 T01080046  RH  067%=      5-min Rain = 0
KLES 170205Z 17007KT 11/05 A30 RMK A01 T01070046  RH  067%=      5-min Rain = 0
KLES 170210Z 17008KT 11/05 A2999 RMK A01 T01050045  RH  068%=      5-min Rain = 0
KLES 170215Z 17007KT 10/05 A2999 RMK A01 T01030045  RH  069%=      5-min Rain = 0
KLES 170220Z 18007KT 10/05 A2999 RMK A01 T01010045  RH  070%=      5-min Rain = 0
KLES 170225Z 17007KT 10/04 A2999 RMK A01 T00990044  RH  070%=      5-min Rain = 0
KLES 170230Z 17006KT 10/04 A2999 RMK A01 T00960043  RH  071%=      5-min Rain = 0
KLES 170235Z 18006KT 09/04 A2999 RMK A01 T00930042  RH  072%=      5-min Rain = 0
KLES 170240Z 17006KT 09/04 A2999 RMK A01 T00900041  RH  073%=      5-min Rain = 0
KLES 170245Z 18006KT 09/04 A2999 RMK A01 T00890042  RH  074%=      5-min Rain = 0
KLES 170250Z 18006KT 09/04 A2999 RMK A01 T00880043  RH  075%=      5-min Rain = 0
KLES 170255Z 18006KT 09/04 A30 RMK A01 T00880042  RH  075%=      5-min Rain = 0
KLES 170300Z 18006KT 09/04 A30 RMK A01 T00860042  RH  075%=      5-min Rain = 0
KLES 170305Z 18007KT 09/04 A2999 RMK A01 T00870044  RH  076%=      5-min Rain = 0
KLES 170310Z 17007KT 09/04 A2999 RMK A01 T00860044  RH  076%=      5-min Rain = 0
KLES 170315Z 17007KT 09/04 A2999 RMK A01 T00860044  RH  077%=      5-min Rain = 0
KLES 170320Z 17006KT 09/04 A2999 RMK A01 T00850044  RH  077%=      5-min Rain = 0
KLES 170325Z 17006KT 08/04 A2999 RMK A01 T00830044  RH  078%=      5-min Rain = 0
KLES 170330Z 17007KT 08/04 A2999 RMK A01 T00830044  RH  078%=      5-min Rain = 0
KLES 170335Z 18008KT 09/05 A2999 RMK A01 T00850046  RH  078%=      5-min Rain = 0
KLES 170340Z 18008KT 09/05 A2999 RMK A01 T00890047  RH  077%=      5-min Rain = 0
KLES 170345Z 18008KT 09/05 A2999 RMK A01 T00900047  RH  076%=      5-min Rain = 0
KLES 170350Z 18008KT 09/05 A2999 RMK A01 T00890046  RH  076%=      5-min Rain = 0
KLES 170355Z 18008KT 09/05 A2999 RMK A01 T00880046  RH  076%=      5-min Rain = 0
KLES 170400Z 18008KT 09/05 A2999 RMK A01 T00870045  RH  076%=      5-min Rain = 0
KLES 170405Z 17008KT 09/05 A2998 RMK A01 T00860045  RH  077%=      5-min Rain = 0
KLES 170410Z 18008KT 09/05 A2998 RMK A01 T00860045  RH  077%=      5-min Rain = 0
KLES 170415Z 18008KT 09/05 A2998 RMK A01 T00870045  RH  077%=      5-min Rain = 0
KLES 170420Z 18007KT 09/05 A2998 RMK A01 T00860045  RH  077%=      5-min Rain = 0
KLES 170425Z 19007KT 09/04 A2998 RMK A01 T00850044  RH  077%=      5-min Rain = 0
KLES 170430Z 19006KT 08/04 A2999 RMK A01 T00820042  RH  078%=      5-min Rain = 0
KLES 170435Z 19006KT 08/04 A2999 RMK A01 T00790041  RH  079%=      5-min Rain = 0
KLES 170440Z 20006KT 08/04 A2999 RMK A01 T00760040  RH  080%=      5-min Rain = 0
KLES 170445Z 20007KT 07/04 A2999 RMK A01 T00730040  RH  081%=      5-min Rain = 0
KLES 170450Z 20007KT 07/04 A2999 RMK A01 T00720040  RH  082%=      5-min Rain = 0
KLES 170455Z 19007KT 07/04 A2999 RMK A01 T00710040  RH  082%=      5-min Rain = 0
KLES 170500Z 19006KT 07/04 A2998 RMK A01 T00690039  RH  083%=      5-min Rain = 0
KLES 170505Z 19006KT 07/04 A2998 RMK A01 T00680039  RH  083%=      5-min Rain = 0
KLES 170510Z 19006KT 07/04 A2998 RMK A01 T00670038  RH  084%=      5-min Rain = 0
KLES 170515Z 19006KT 07/04 A2998 RMK A01 T00650038  RH  084%=      5-min Rain = 0
KLES 170520Z 19006KT 06/04 A2998 RMK A01 T00640037  RH  085%=      5-min Rain = 0
KLES 170525Z 20006KT 06/04 A2998 RMK A01 T00630037  RH  085%=      5-min Rain = 0
KLES 170530Z 20005KT 06/04 A2998 RMK A01 T00620037  RH  085%=      5-min Rain = 0
KLES 170535Z 20005KT 06/04 A2998 RMK A01 T00610036  RH  086%=      5-min Rain = 0
KLES 170540Z 20005KT 06/04 A2998 RMK A01 T00600036  RH  086%=      5-min Rain = 0
KLES 170545Z 20006KT 06/04 A2998 RMK A01 T00590035  RH  086%=      5-min Rain = 0
KLES 170550Z 21005KT 06/04 A2998 RMK A01 T00570035  RH  087%=      5-min Rain = 0
KLES 170555Z 20005KT 06/03 A2998 RMK A01 T00560034  RH  087%=      5-min Rain = 0

Page generated in 0.0187 seconds.